Terminal Aerodrome Forecast
Issued by NWS

Home | Current Version | Previous Version | Text Only | Print | Product List | Glossary On
Versions: 1 2 3 4 5 6 7 8 9 10 11 12 13
000
FTUS45 KREV 061128
TAFMMH
TAF
KMMH 061128Z 0612/0712 VRB04KT 5SM -RASN BKN012 OVC025
      TEMPO 0612/0614 1SM -SN OVC005
     FM061400 VRB04KT P6SM VCSH SCT015 BKN030
     FM062100 12008KT 5SM -SHRA SCT020 BKN030
     FM070400 VRB03KT P6SM VCSH SCT025 BKN040=

USA.gov is the U.S. government's official web portal to all federal, state and local government web resources and services.